Time;durP1;ratioP1;P1;durP2;ratioP2;P2;SDS_P1;SDS_P2;PMS_P1;PMS_P2;Temp;Humidity;BMP_temperature;BMP_pressure;BME280_temperature;BME280_humidity;BME280_pressure;Samples;Min_cycle;Max_cycle;Signal;HPM_P1;HPM_P2
2022/09/22 00:00:40;;;;;;;1.67;1.67;;;;;;;;;;5016561;28;20393;-75
2022/09/22 00:03:06;;;;;;;2.30;2.20;;;;;;;;;;4998907;28;20444;-75
2022/09/22 00:05:32;;;;;;;2.67;2.67;;;;;;;;;;5016435;28;20419;-74
2022/09/22 00:07:58;;;;;;;2.43;2.30;;;;;;;;;;5016323;28;20421;-75
2022/09/22 00:10:27;;;;;;;2.07;1.97;;;;;;;;;;5016328;28;20500;-74
2022/09/22 00:12:54;;;;;;;3.03;2.83;;;;;;;;;;5016222;28;20423;-74
2022/09/22 00:15:20;;;;;;;3.13;2.77;;;;;;;;;;5016223;28;20748;-75
2022/09/22 00:17:46;;;;;;;4.50;3.07;;;;;;;;;;5016403;28;20472;-74
2022/09/22 00:20:12;;;;;;;3.67;3.37;;;;;;;;;;5016105;28;20500;-75
2022/09/22 00:22:41;;;;;;;5.47;3.23;;;;;;;;;;5016091;28;20928;-75
2022/09/22 00:25:08;;;;;;;3.60;3.40;;;;;;;;;;5016011;28;20419;-74
2022/09/22 00:27:34;;;;;;;3.40;3.30;;;;;;;;;;5016022;28;20778;-74
2022/09/22 00:30:00;;;;;;;2.97;2.70;;;;;;;;;;4998373;28;20423;-74
2022/09/22 00:32:26;;;;;;;3.10;3.00;;;;;;;;;;5015925;28;20425;-74
2022/09/22 00:34:52;;;;;;;7.33;2.37;;;;;;;;;;5015935;28;20432;-75
2022/09/22 00:37:18;;;;;;;2.23;2.20;;;;;;;;;;5015743;28;20464;-75
2022/09/22 00:39:44;;;;;;;2.33;2.23;;;;;;;;;;5015725;28;20462;-76
2022/09/22 00:42:11;;;;;;;2.10;2.10;;;;;;;;;;5015776;28;20413;-75
2022/09/22 00:44:38;;;;;;;2.07;1.97;;;;;;;;;;5015722;28;20412;-75
2022/09/22 00:47:20;;;;;;;2.77;2.57;;;;;;;;;;5015746;28;20401;-76
2022/09/22 00:49:52;;;;;;;2.10;2.00;;;;;;;;;;5015514;28;20463;-75
2022/09/22 00:52:21;;;;;;;2.30;2.27;;;;;;;;;;4997714;28;20480;-75
2022/09/22 00:54:48;;;;;;;2.70;2.30;;;;;;;;;;5015550;28;20483;-75
2022/09/22 00:57:16;;;;;;;1.80;1.80;;;;;;;;;;4997789;28;20464;-74
2022/09/22 00:59:43;;;;;;;2.30;2.23;;;;;;;;;;5015458;28;20424;-76
2022/09/22 01:02:10;;;;;;;1.80;1.80;;;;;;;;;;4998238;28;20527;-77
2022/09/22 01:04:36;;;;;;;2.27;2.17;;;;;;;;;;4997765;28;20871;-77
2022/09/22 01:07:02;;;;;;;2.60;1.70;;;;;;;;;;5015206;28;20419;-77
2022/09/22 01:09:31;;;;;;;2.33;2.20;;;;;;;;;;5015256;28;20491;-76
2022/09/22 01:11:57;;;;;;;4.17;2.60;;;;;;;;;;5015112;28;20427;-77
2022/09/22 01:14:42;;;;;;;6.50;2.20;;;;;;;;;;5015167;28;20439;-77
2022/09/22 01:17:23;;;;;;;2.60;2.10;;;;;;;;;;4997318;28;20534;-77
2022/09/22 01:20:08;;;;;;;1.80;1.80;;;;;;;;;;5015021;28;20409;-77
2022/09/22 01:22:49;;;;;;;2.17;2.17;;;;;;;;;;5014930;28;20431;-76
2022/09/22 01:25:33;;;;;;;1.80;1.80;;;;;;;;;;5014959;28;20400;-76
2022/09/22 01:28:02;;;;;;;2.30;2.20;;;;;;;;;;5014910;28;20408;-77
2022/09/22 01:30:33;;;;;;;2.33;2.13;;;;;;;;;;5014812;28;20756;-77
2022/09/22 01:33:02;;;;;;;2.73;2.53;;;;;;;;;;5014823;28;20876;-77
2022/09/22 01:35:40;;;;;;;2.10;2.10;;;;;;;;;;5014693;28;20392;-77
2022/09/22 01:38:12;;;;;;;1.83;1.83;;;;;;;;;;5014664;28;20586;-75
2022/09/22 01:40:45;;;;;;;1.90;1.80;;;;;;;;;;5014565;28;20409;-76
2022/09/22 01:43:33;;;;;;;2.43;2.10;;;;;;;;;;5015447;28;20511;-77
2022/09/22 01:46:01;;;;;;;2.40;2.40;;;;;;;;;;5014889;28;20923;-76
2022/09/22 01:48:28;;;;;;;1.67;1.67;;;;;;;;;;5015232;28;20397;-77
2022/09/22 01:51:00;;;;;;;3.07;1.70;;;;;;;;;;5014913;28;20885;-77
2022/09/22 01:53:38;;;;;;;1.97;1.87;;;;;;;;;;5014550;28;20967;-77
2022/09/22 01:56:07;;;;;;;2.20;1.80;;;;;;;;;;4997103;28;20793;-76
2022/09/22 01:58:35;;;;;;;1.90;1.90;;;;;;;;;;5014354;28;20468;-76
2022/09/22 02:01:22;;;;;;;2.50;2.40;;;;;;;;;;4996720;28;20772;-77
2022/09/22 02:04:01;;;;;;;1.87;1.87;;;;;;;;;;5013831;28;20411;-77
2022/09/22 02:06:37;;;;;;;1.73;1.63;;;;;;;;;;5014196;28;20412;-77
2022/09/22 02:09:07;;;;;;;4.47;1.90;;;;;;;;;;4996524;28;20420;-76
2022/09/22 02:11:33;;;;;;;1.97;1.97;;;;;;;;;;5014198;28;20412;-76
2022/09/22 02:13:59;;;;;;;2.20;2.10;;;;;;;;;;5014025;28;20412;-76
2022/09/22 02:16:26;;;;;;;2.50;2.30;;;;;;;;;;5014057;28;20463;-77
2022/09/22 02:19:04;;;;;;;4.50;2.50;;;;;;;;;;5014261;28;20559;-76
2022/09/22 02:21:30;;;;;;;1.80;1.80;;;;;;;;;;5013991;28;20455;-76
2022/09/22 02:23:56;;;;;;;2.10;2.00;;;;;;;;;;4996332;28;20421;-76
2022/09/22 02:26:24;;;;;;;2.87;2.00;;;;;;;;;;5013907;28;20445;-76
2022/09/22 02:29:04;;;;;;;2.27;2.27;;;;;;;;;;5014004;28;20412;-77
2022/09/22 02:31:32;;;;;;;2.20;2.00;;;;;;;;;;5013888;28;20507;-77
2022/09/22 02:33:58;;;;;;;2.30;2.20;;;;;;;;;;5013888;28;20412;-76
2022/09/22 02:36:45;;;;;;;2.00;2.00;;;;;;;;;;5013849;28;20531;-77
2022/09/22 02:39:12;;;;;;;2.87;2.70;;;;;;;;;;5013401;28;20963;-77
2022/09/22 02:41:44;;;;;;;3.83;2.53;;;;;;;;;;5013717;28;20420;-77
2022/09/22 02:44:17;;;;;;;2.57;2.47;;;;;;;;;;5013739;28;20781;-76
2022/09/22 02:46:46;;;;;;;2.20;2.10;;;;;;;;;;5013734;28;20391;-77
2022/09/22 02:49:15;;;;;;;2.53;2.20;;;;;;;;;;5013552;28;20413;-76
2022/09/22 02:51:41;;;;;;;2.90;2.47;;;;;;;;;;5013422;28;20435;-76
2022/09/22 02:54:07;;;;;;;2.70;2.60;;;;;;;;;;5013680;28;20429;-76
2022/09/22 02:56:33;;;;;;;2.80;2.70;;;;;;;;;;5013544;28;20479;-77
2022/09/22 02:58:59;;;;;;;2.60;2.40;;;;;;;;;;4996001;28;20480;-76
2022/09/22 03:01:26;;;;;;;2.37;2.17;;;;;;;;;;4996246;28;20459;-76
2022/09/22 03:03:52;;;;;;;2.70;1.87;;;;;;;;;;5013757;28;20958;-76
2022/09/22 03:06:18;;;;;;;2.47;2.20;;;;;;;;;;5013431;28;20440;-77
2022/09/22 03:08:44;;;;;;;2.50;2.30;;;;;;;;;;5013543;28;20419;-77
2022/09/22 03:11:10;;;;;;;6.60;2.30;;;;;;;;;;5013480;28;20892;-76
2022/09/22 03:13:35;;;;;;;2.40;2.20;;;;;;;;;;5013457;28;20504;-77
2022/09/22 03:16:01;;;;;;;2.63;2.50;;;;;;;;;;5016498;28;20900;-77
2022/09/22 03:18:27;;;;;;;2.70;2.60;;;;;;;;;;5017248;28;20468;-76
2022/09/22 03:20:53;;;;;;;2.97;2.73;;;;;;;;;;4999626;28;20424;-77
2022/09/22 03:23:19;;;;;;;2.77;2.57;;;;;;;;;;5017267;28;20804;-76
2022/09/22 03:25:45;;;;;;;2.90;2.40;;;;;;;;;;5017126;28;20387;-77
2022/09/22 03:28:11;;;;;;;2.40;2.30;;;;;;;;;;5017116;28;20391;-76
2022/09/22 03:30:39;;;;;;;2.70;2.50;;;;;;;;;;5017086;28;20409;-77
2022/09/22 03:33:05;;;;;;;2.30;2.20;;;;;;;;;;5017044;28;20417;-76
2022/09/22 03:35:34;;;;;;;2.93;2.70;;;;;;;;;;4999333;28;20387;-76
2022/09/22 03:38:00;;;;;;;3.00;2.70;;;;;;;;;;5016900;28;20976;-76
2022/09/22 03:40:26;;;;;;;6.00;2.77;;;;;;;;;;5016891;28;20436;-77
2022/09/22 03:42:52;;;;;;;2.83;2.73;;;;;;;;;;5016887;28;20383;-77
2022/09/22 03:45:18;;;;;;;2.40;2.40;;;;;;;;;;4999248;28;20380;-76
2022/09/22 03:47:45;;;;;;;3.30;3.17;;;;;;;;;;4999177;28;20451;-77
2022/09/22 03:50:11;;;;;;;3.00;2.90;;;;;;;;;;5016754;28;20524;-76
2022/09/22 03:52:38;;;;;;;3.40;3.13;;;;;;;;;;5016469;28;21005;-77
2022/09/22 03:55:05;;;;;;;8.93;5.80;;;;;;;;;;4999060;28;20494;-76
2022/09/22 03:57:31;;;;;;;10.70;9.53;;;;;;;;;;4998858;28;20910;-77
2022/09/22 03:59:57;;;;;;;13.53;8.07;;;;;;;;;;4998944;28;20423;-76
2022/09/22 04:02:26;;;;;;;6.70;6.00;;;;;;;;;;4998866;28;20441;-77
2022/09/22 04:04:52;;;;;;;3.30;3.10;;;;;;;;;;4998894;28;20432;-77
2022/09/22 04:07:18;;;;;;;10.07;3.97;;;;;;;;;;4998758;28;20500;-76
2022/09/22 04:09:44;;;;;;;3.70;3.40;;;;;;;;;;5016325;28;20420;-76
2022/09/22 04:12:10;;;;;;;8.20;3.47;;;;;;;;;;5016354;28;20462;-77
2022/09/22 04:14:36;;;;;;;3.10;3.00;;;;;;;;;;5016305;28;20436;-77
2022/09/22 04:17:02;;;;;;;3.27;2.97;;;;;;;;;;5016195;28;20483;-77
2022/09/22 04:19:28;;;;;;;23.60;16.30;;;;;;;;;;4998571;28;20406;-76
2022/09/22 04:21:55;;;;;;;24.40;18.07;;;;;;;;;;4998487;28;20783;-77
2022/09/22 04:24:23;;;;;;;9.70;3.80;;;;;;;;;;5016137;28;20403;-74
2022/09/22 04:26:49;;;;;;;3.60;3.40;;;;;;;;;;5015720;28;20409;-76
2022/09/22 04:29:15;;;;;;;3.67;3.30;;;;;;;;;;5016067;28;20807;-76
2022/09/22 04:31:41;;;;;;;3.27;3.07;;;;;;;;;;5015932;28;20448;-75
2022/09/22 04:34:07;;;;;;;3.70;3.50;;;;;;;;;;5016024;28;20412;-76
2022/09/22 04:36:33;;;;;;;7.27;3.23;;;;;;;;;;4998504;28;20466;-76
2022/09/22 04:39:01;;;;;;;3.53;3.20;;;;;;;;;;5015784;28;20450;-76
2022/09/22 04:41:27;;;;;;;3.73;3.53;;;;;;;;;;5015787;28;20416;-75
2022/09/22 04:43:53;;;;;;;3.60;3.40;;;;;;;;;;5015746;28;20524;-75
2022/09/22 04:46:19;;;;;;;9.07;3.33;;;;;;;;;;5015704;28;20376;-75
2022/09/22 04:48:45;;;;;;;3.40;3.30;;;;;;;;;;5015745;28;20854;-75
2022/09/22 04:51:11;;;;;;;4.00;3.70;;;;;;;;;;4998056;28;20881;-76
2022/09/22 04:53:37;;;;;;;4.37;4.10;;;;;;;;;;5015429;28;20488;-74
2022/09/22 04:56:03;;;;;;;4.30;4.00;;;;;;;;;;4998046;28;20414;-74
2022/09/22 04:58:30;;;;;;;3.37;3.10;;;;;;;;;;5015485;28;20472;-76
2022/09/22 05:01:01;;;;;;;3.80;3.60;;;;;;;;;;4997921;28;20522;-74
2022/09/22 05:03:26;;;;;;;3.47;3.13;;;;;;;;;;5015446;28;20807;-74
2022/09/22 05:05:54;;;;;;;3.60;3.47;;;;;;;;;;5015300;28;20427;-74
2022/09/22 05:08:20;;;;;;;3.40;3.30;;;;;;;;;;5015332;28;20907;-74
2022/09/22 05:10:46;;;;;;;3.90;3.80;;;;;;;;;;5015310;28;20884;-74
2022/09/22 05:13:12;;;;;;;3.27;2.90;;;;;;;;;;5015241;28;20416;-73
2022/09/22 05:15:38;;;;;;;3.77;3.53;;;;;;;;;;4997557;28;20806;-74
2022/09/22 05:18:04;;;;;;;3.37;3.03;;;;;;;;;;5014851;28;20427;-74
2022/09/22 05:20:30;;;;;;;5.17;4.37;;;;;;;;;;5015028;28;20405;-74
2022/09/22 05:22:56;;;;;;;4.53;4.30;;;;;;;;;;4997310;28;20417;-75
2022/09/22 05:25:22;;;;;;;3.70;3.60;;;;;;;;;;5014923;28;20409;-75
2022/09/22 05:27:50;;;;;;;4.33;4.00;;;;;;;;;;5014767;28;20467;-75
2022/09/22 05:30:16;;;;;;;3.47;3.30;;;;;;;;;;5014874;28;20459;-75
2022/09/22 05:32:43;;;;;;;4.63;4.20;;;;;;;;;;5014891;28;20864;-75
2022/09/22 05:35:10;;;;;;;3.73;3.50;;;;;;;;;;5014755;28;20492;-76
2022/09/22 05:37:36;;;;;;;5.30;4.47;;;;;;;;;;5013903;28;20402;-76
2022/09/22 05:40:02;;;;;;;6.10;5.60;;;;;;;;;;5014731;28;20372;-76
2022/09/22 05:42:28;;;;;;;5.53;5.13;;;;;;;;;;5014622;28;20488;-76
2022/09/22 05:44:54;;;;;;;4.53;4.23;;;;;;;;;;5014521;28;20436;-76
2022/09/22 05:47:20;;;;;;;5.27;4.83;;;;;;;;;;5014403;28;20435;-75
2022/09/22 05:49:46;;;;;;;10.50;5.07;;;;;;;;;;4996911;28;20429;-76
2022/09/22 05:52:12;;;;;;;23.70;15.00;;;;;;;;;;5014270;28;20558;-76
2022/09/22 05:54:38;;;;;;;15.47;11.13;;;;;;;;;;5014399;28;20450;-75
2022/09/22 05:57:04;;;;;;;17.53;10.73;;;;;;;;;;5014510;28;20432;-76
2022/09/22 05:59:30;;;;;;;11.07;7.87;;;;;;;;;;4996642;28;20411;-76
2022/09/22 06:01:56;;;;;;;6.97;6.27;;;;;;;;;;5014328;28;20448;-75
2022/09/22 06:04:22;;;;;;;5.40;5.07;;;;;;;;;;4997083;28;20396;-76
2022/09/22 06:06:48;;;;;;;5.13;4.73;;;;;;;;;;5014180;28;20403;-77
2022/09/22 06:09:14;;;;;;;4.80;4.40;;;;;;;;;;4996519;28;21006;-80
2022/09/22 06:11:40;;;;;;;5.80;5.30;;;;;;;;;;4996610;28;20417;-78
2022/09/22 06:14:06;;;;;;;14.23;5.30;;;;;;;;;;4996500;28;20425;-76
2022/09/22 06:16:31;;;;;;;5.83;5.33;;;;;;;;;;4996509;28;20497;-80
2022/09/22 06:18:57;;;;;;;5.23;4.97;;;;;;;;;;4996605;28;20457;-79
2022/09/22 06:21:24;;;;;;;7.60;4.37;;;;;;;;;;4996233;28;20420;-79
2022/09/22 06:23:51;;;;;;;4.57;4.37;;;;;;;;;;5013941;28;20384;-77
2022/09/22 06:26:17;;;;;;;4.93;4.50;;;;;;;;;;4996330;28;20417;-74
2022/09/22 06:28:43;;;;;;;4.90;4.43;;;;;;;;;;5013843;28;20827;-75
2022/09/22 06:31:09;;;;;;;4.37;4.07;;;;;;;;;;5013745;28;20745;-73
2022/09/22 06:33:35;;;;;;;6.50;4.30;;;;;;;;;;5013723;28;20477;-77
2022/09/22 06:36:01;;;;;;;4.80;4.47;;;;;;;;;;5013701;28;20812;-74
2022/09/22 06:38:30;;;;;;;5.40;4.93;;;;;;;;;;5013639;28;20408;-74
2022/09/22 06:41:00;;;;;;;7.20;4.43;;;;;;;;;;5013765;28;20412;-73
2022/09/22 06:43:26;;;;;;;6.27;4.83;;;;;;;;;;5013592;28;20405;-76
2022/09/22 06:45:52;;;;;;;7.47;4.83;;;;;;;;;;5013652;28;20807;-77
2022/09/22 06:48:21;;;;;;;5.27;4.70;;;;;;;;;;5013294;28;20504;-74
2022/09/22 06:50:51;;;;;;;6.40;4.87;;;;;;;;;;5013574;28;20364;-76
2022/09/22 06:53:18;;;;;;;5.77;5.47;;;;;;;;;;5013302;28;20459;-79
2022/09/22 06:55:44;;;;;;;6.30;5.70;;;;;;;;;;5013582;28;20393;-77
2022/09/22 06:58:11;;;;;;;5.70;5.10;;;;;;;;;;5013580;28;20420;-77
2022/09/22 07:00:37;;;;;;;5.43;5.13;;;;;;;;;;4996210;28;20504;-80
2022/09/22 07:03:16;;;;;;;6.07;5.37;;;;;;;;;;5013431;28;20409;-79
2022/09/22 07:05:51;;;;;;;5.40;4.17;;;;;;;;;;5013461;28;20405;-76
2022/09/22 07:08:17;;;;;;;5.60;5.10;;;;;;;;;;5013464;28;20897;-75
2022/09/22 07:10:43;;;;;;;5.23;5.03;;;;;;;;;;5013391;28;20404;-77
2022/09/22 07:13:09;;;;;;;5.80;5.17;;;;;;;;;;4995780;28;20908;-80
2022/09/22 07:15:35;;;;;;;6.53;6.23;;;;;;;;;;4995864;28;20445;-80
2022/09/22 07:18:02;;;;;;;5.97;5.40;;;;;;;;;;5013266;28;20892;-77
2022/09/22 07:20:28;;;;;;;6.80;5.30;;;;;;;;;;4995905;28;20463;-74
2022/09/22 07:22:59;;;;;;;5.37;5.00;;;;;;;;;;5013373;28;20455;-76
2022/09/22 07:25:27;;;;;;;4.40;4.20;;;;;;;;;;5014602;28;20413;-77
2022/09/22 07:27:53;;;;;;;5.30;5.00;;;;;;;;;;5015276;28;20463;-80
2022/09/22 07:30:21;;;;;;;5.23;4.77;;;;;;;;;;4997863;28;20877;-74
2022/09/22 07:32:47;;;;;;;5.87;4.47;;;;;;;;;;5014454;28;20393;-75
2022/09/22 07:35:13;;;;;;;7.53;5.33;;;;;;;;;;5013703;28;20777;-75
2022/09/22 07:37:40;;;;;;;4.50;4.13;;;;;;;;;;5014090;28;20404;-77
2022/09/22 07:40:06;;;;;;;4.60;4.30;;;;;;;;;;4996418;28;20432;-76
2022/09/22 07:42:32;;;;;;;4.83;4.30;;;;;;;;;;5014031;28;20397;-78
2022/09/22 07:45:14;;;;;;;3.97;3.77;;;;;;;;;;5014046;28;20405;-74
2022/09/22 07:50:27;;;;;;;5.20;4.97;;;;;;;;;;5013876;28;20491;-76
2022/09/22 07:52:53;;;;;;;5.70;5.30;;;;;;;;;;5012870;28;20467;-76
2022/09/22 07:55:22;;;;;;;6.70;5.03;;;;;;;;;;5013219;28;20397;-75
2022/09/22 07:57:54;;;;;;;7.03;5.17;;;;;;;;;;5013158;28;20405;-77
2022/09/22 08:00:21;;;;;;;9.03;5.20;;;;;;;;;;4995637;28;20904;-75
2022/09/22 08:02:53;;;;;;;5.40;5.10;;;;;;;;;;5016470;28;20508;-76
2022/09/22 08:05:19;;;;;;;5.03;4.63;;;;;;;;;;5016500;28;20393;-75
2022/09/22 08:07:45;;;;;;;5.67;5.03;;;;;;;;;;5016359;28;20574;-75
2022/09/22 08:10:12;;;;;;;6.30;5.73;;;;;;;;;;5016314;28;20983;-75
2022/09/22 08:12:38;;;;;;;5.97;5.47;;;;;;;;;;5016356;28;20872;-74
2022/09/22 08:15:05;;;;;;;8.00;5.57;;;;;;;;;;5016236;28;20413;-75
2022/09/22 08:17:31;;;;;;;5.70;5.30;;;;;;;;;;4998608;28;20904;-75
2022/09/22 08:20:00;;;;;;;6.03;5.53;;;;;;;;;;5016116;28;20411;-76
2022/09/22 08:22:26;;;;;;;8.53;5.20;;;;;;;;;;5016073;28;20416;-77
2022/09/22 08:24:52;;;;;;;5.97;5.47;;;;;;;;;;4998474;28;20924;-74
2022/09/22 08:27:19;;;;;;;5.77;5.47;;;;;;;;;;5016020;28;20908;-77
2022/09/22 08:29:45;;;;;;;5.50;5.10;;;;;;;;;;4998424;28;20946;-76
2022/09/22 08:32:12;;;;;;;6.40;5.70;;;;;;;;;;5016027;28;20405;-75
2022/09/22 08:34:38;;;;;;;5.37;4.93;;;;;;;;;;4998272;28;20452;-86
2022/09/22 08:37:08;;;;;;;5.30;4.90;;;;;;;;;;5015832;28;20891;-71
2022/09/22 08:39:35;;;;;;;6.10;5.53;;;;;;;;;;5016124;28;20800;-85
2022/09/22 08:42:08;;;;;;;5.70;5.30;;;;;;;;;;4998137;28;20432;-83
2022/09/22 08:44:41;;;;;;;5.90;5.50;;;;;;;;;;5015676;28;20896;-80
2022/09/22 08:47:11;;;;;;;6.00;5.50;;;;;;;;;;5015573;28;20420;-78
2022/09/22 08:52:38;;;;;;;5.80;5.30;;;;;;;;;;5010313;28;20463;-74
2022/09/22 08:55:05;;;;;;;11.33;5.20;;;;;;;;;;5012893;28;20825;-81
2022/09/22 08:57:32;;;;;;;5.77;5.23;;;;;;;;;;5009772;28;20430;-76
2022/09/22 09:00:06;;;;;;;5.70;5.00;;;;;;;;;;4993165;28;20421;-75
2022/09/22 09:02:34;;;;;;;5.07;4.77;;;;;;;;;;5005413;28;20483;-74
2022/09/22 09:05:00;;;;;;;4.73;4.53;;;;;;;;;;4975108;28;20799;-74
2022/09/22 09:07:41;;;;;;;5.40;5.13;;;;;;;;;;4992265;28;20471;-78
2022/09/22 09:10:27;;;;;;;4.57;4.27;;;;;;;;;;5002907;28;20780;-81
2022/09/22 09:13:11;;;;;;;5.10;4.60;;;;;;;;;;4992946;28;20453;-75
2022/09/22 09:15:41;;;;;;;4.60;4.30;;;;;;;;;;5010703;28;20435;-83
2022/09/22 09:18:13;;;;;;;5.20;4.80;;;;;;;;;;5012056;28;20413;-76
2022/09/22 09:20:46;;;;;;;5.20;5.00;;;;;;;;;;5012441;28;20425;-73
2022/09/22 09:23:25;;;;;;;5.37;4.93;;;;;;;;;;5012524;28;20730;-74
2022/09/22 09:25:53;;;;;;;5.63;4.77;;;;;;;;;;5009838;28;20429;-76
2022/09/22 09:28:21;;;;;;;4.77;4.47;;;;;;;;;;5011573;28;20516;-75
2022/09/22 09:30:55;;;;;;;5.30;4.70;;;;;;;;;;5011782;28;20472;-72
2022/09/22 09:33:21;;;;;;;5.60;4.23;;;;;;;;;;4999387;28;20464;-72
2022/09/22 09:35:51;;;;;;;5.33;4.93;;;;;;;;;;4993225;28;20466;-77
2022/09/22 09:38:18;;;;;;;4.43;4.13;;;;;;;;;;4974371;28;20526;-75
2022/09/22 09:40:49;;;;;;;11.53;4.77;;;;;;;;;;4994753;28;20432;-75
2022/09/22 09:43:16;;;;;;;4.50;4.20;;;;;;;;;;4977648;28;20799;-74
2022/09/22 09:45:52;;;;;;;5.17;4.87;;;;;;;;;;4995041;28;20419;-74
2022/09/22 09:48:28;;;;;;;4.30;4.10;;;;;;;;;;4994774;28;20482;-79
2022/09/22 09:50:54;;;;;;;4.17;3.87;;;;;;;;;;4995128;28;20500;-77
2022/09/22 09:53:26;;;;;;;3.80;3.70;;;;;;;;;;4994744;28;20554;-82
2022/09/22 09:55:52;;;;;;;4.13;3.90;;;;;;;;;;4994768;28;20461;-72
2022/09/22 10:01:04;;;;;;;4.00;3.80;;;;;;;;;;4995007;28;20408;-75
2022/09/22 10:03:33;;;;;;;3.93;3.73;;;;;;;;;;4994576;28;20452;-74
2022/09/22 10:06:05;;;;;;;4.63;4.43;;;;;;;;;;4994377;28;20405;-75
2022/09/22 10:08:33;;;;;;;5.20;4.00;;;;;;;;;;4994417;28;20474;-74
2022/09/22 10:11:00;;;;;;;3.80;3.63;;;;;;;;;;4994555;28;20405;-77
2022/09/22 10:13:34;;;;;;;5.63;3.53;;;;;;;;;;4977095;28;20427;-76
2022/09/22 10:16:02;;;;;;;3.80;3.50;;;;;;;;;;4976877;28;20777;-76
2022/09/22 10:18:32;;;;;;;3.60;3.40;;;;;;;;;;4994411;28;20462;-77
2022/09/22 10:21:02;;;;;;;3.90;3.60;;;;;;;;;;4994262;28;20411;-76
2022/09/22 10:23:30;;;;;;;3.97;3.60;;;;;;;;;;4993932;28;20439;-75
2022/09/22 10:26:12;;;;;;;4.23;3.30;;;;;;;;;;4994328;28;20458;-77
2022/09/22 10:28:38;;;;;;;3.60;3.30;;;;;;;;;;4993811;28;21040;-79
2022/09/22 10:31:04;;;;;;;5.30;3.47;;;;;;;;;;4994112;28;20422;-82
2022/09/22 10:33:31;;;;;;;3.73;3.30;;;;;;;;;;4976732;28;20435;-80
2022/09/22 10:36:10;;;;;;;3.47;3.10;;;;;;;;;;4994138;28;20936;-77
2022/09/22 10:38:40;;;;;;;3.80;2.43;;;;;;;;;;4994179;28;20415;-76
2022/09/22 10:41:14;;;;;;;3.00;2.87;;;;;;;;;;4994102;28;20406;-77
2022/09/22 10:43:43;;;;;;;5.80;2.90;;;;;;;;;;4994191;28;20405;-74
2022/09/22 10:46:15;;;;;;;6.63;3.03;;;;;;;;;;4976650;28;20512;-76
2022/09/22 10:48:50;;;;;;;8.90;3.27;;;;;;;;;;4993921;28;20473;-78
2022/09/22 10:51:19;;;;;;;3.27;3.07;;;;;;;;;;4993963;28;20427;-76
2022/09/22 10:53:45;;;;;;;3.40;2.80;;;;;;;;;;4993829;28;20472;-76
2022/09/22 10:56:14;;;;;;;4.53;2.57;;;;;;;;;;4976557;28;20833;-75
2022/09/22 10:58:40;;;;;;;3.13;2.40;;;;;;;;;;4994057;28;20414;-79
2022/09/22 11:01:18;;;;;;;2.47;2.37;;;;;;;;;;4976363;28;20514;-77
2022/09/22 11:03:44;;;;;;;2.33;2.23;;;;;;;;;;4993781;28;20420;-80
2022/09/22 11:12:24;;;;;;;2.63;2.43;;;;;;;;;;4993894;28;20454;-78
2022/09/22 11:14:56;;;;;;;2.40;2.30;;;;;;;;;;4993837;28;20414;-76
2022/09/22 11:17:30;;;;;;;4.70;2.13;;;;;;;;;;4993791;28;20419;-76
2022/09/22 11:20:15;;;;;;;3.70;2.30;;;;;;;;;;4993716;28;20801;-76
2022/09/22 11:23:02;;;;;;;4.03;1.70;;;;;;;;;;4976270;28;20439;-76
2022/09/22 11:25:31;;;;;;;2.00;1.50;;;;;;;;;;4993654;28;20413;-76
2022/09/22 11:28:03;;;;;;;1.50;1.50;;;;;;;;;;4976182;28;20466;-76
2022/09/22 11:30:49;;;;;;;2.33;1.60;;;;;;;;;;4976208;28;20433;-76
2022/09/22 11:33:15;;;;;;;1.40;1.30;;;;;;;;;;4993383;28;20418;-76
2022/09/22 11:36:00;;;;;;;1.27;1.07;;;;;;;;;;4994453;28;20421;-77
2022/09/22 11:38:33;;;;;;;3.13;1.60;;;;;;;;;;4997281;28;20405;-76
2022/09/22 11:41:07;;;;;;;1.50;1.33;;;;;;;;;;4979609;28;20431;-76
2022/09/22 11:43:36;;;;;;;2.30;1.37;;;;;;;;;;4979826;28;20753;-76
2022/09/22 11:46:02;;;;;;;1.37;1.37;;;;;;;;;;4997250;28;20928;-76
2022/09/22 11:48:50;;;;;;;1.20;1.20;;;;;;;;;;4997078;28;20567;-76
2022/09/22 11:51:35;;;;;;;1.47;1.47;;;;;;;;;;4979572;28;20944;-77
2022/09/22 11:54:27;;;;;;;1.90;1.37;;;;;;;;;;4997111;28;20431;-77
2022/09/22 11:56:56;;;;;;;1.50;1.50;;;;;;;;;;4992643;28;20435;-76
2022/09/22 11:59:29;;;;;;;1.80;1.70;;;;;;;;;;4997010;28;20443;-76
2022/09/22 12:01:56;;;;;;;1.57;1.40;;;;;;;;;;4996932;28;20783;-75
2022/09/22 12:04:28;;;;;;;2.20;1.43;;;;;;;;;;4979429;28;20421;-76
2022/09/22 12:06:55;;;;;;;1.30;1.30;;;;;;;;;;4996777;28;20509;-75
2022/09/22 12:09:26;;;;;;;1.37;1.37;;;;;;;;;;4996721;28;20904;-76
2022/09/22 12:11:54;;;;;;;2.50;1.67;;;;;;;;;;4979361;28;20943;-76
2022/09/22 12:14:20;;;;;;;1.50;1.40;;;;;;;;;;4996728;28;20418;-76
2022/09/22 12:17:04;;;;;;;1.60;1.60;;;;;;;;;;4996689;28;20746;-76
2022/09/22 12:19:37;;;;;;;1.53;1.53;;;;;;;;;;4996579;28;20505;-76
2022/09/22 12:22:06;;;;;;;1.90;1.90;;;;;;;;;;4996563;28;20418;-76
2022/09/22 12:24:33;;;;;;;8.47;1.70;;;;;;;;;;4979008;28;20804;-73
2022/09/22 12:27:09;;;;;;;1.67;1.37;;;;;;;;;;4996566;28;20410;-81
2022/09/22 12:29:36;;;;;;;2.03;1.70;;;;;;;;;;4996373;28;20475;-79
2022/09/22 12:32:02;;;;;;;2.07;1.67;;;;;;;;;;4996422;28;20403;-78
2022/09/22 12:34:39;;;;;;;1.53;1.53;;;;;;;;;;4996270;28;20437;-77
2022/09/22 12:37:28;;;;;;;1.67;1.60;;;;;;;;;;4996228;28;20422;-80
2022/09/22 12:39:55;;;;;;;2.93;1.63;;;;;;;;;;4983956;28;20849;-76
2022/09/22 12:42:38;;;;;;;1.80;1.30;;;;;;;;;;4996219;28;20805;-74
2022/09/22 12:45:04;;;;;;;1.30;1.30;;;;;;;;;;4996225;28;20421;-74
2022/09/22 12:47:32;;;;;;;1.30;1.27;;;;;;;;;;4995809;28;20490;-75
2022/09/22 12:49:59;;;;;;;1.20;1.20;;;;;;;;;;4995869;28;20807;-75
2022/09/22 12:52:41;;;;;;;1.17;1.17;;;;;;;;;;4978376;28;20479;-74
2022/09/22 12:55:23;;;;;;;6.63;1.77;;;;;;;;;;4978593;28;20496;-75
2022/09/22 12:57:49;;;;;;;1.40;1.30;;;;;;;;;;4978696;28;20885;-76
2022/09/22 13:00:32;;;;;;;1.77;1.23;;;;;;;;;;4995903;28;20414;-74
2022/09/22 13:02:58;;;;;;;1.23;1.23;;;;;;;;;;4995816;28;20499;-74
2022/09/22 13:05:24;;;;;;;15.43;1.50;;;;;;;;;;4995797;28;20877;-74
2022/09/22 13:07:57;;;;;;;1.57;1.47;;;;;;;;;;4995590;28;20469;-75
2022/09/22 13:10:23;;;;;;;3.80;1.40;;;;;;;;;;4995695;28;20780;-75
2022/09/22 13:13:02;;;;;;;2.00;1.37;;;;;;;;;;4978188;28;20429;-75
2022/09/22 13:15:48;;;;;;;2.43;1.00;;;;;;;;;;4995693;28;20413;-74
2022/09/22 13:18:32;;;;;;;1.80;1.70;;;;;;;;;;4995575;28;20430;-76
2022/09/22 13:20:59;;;;;;;1.20;1.20;;;;;;;;;;4995462;28;20409;-76
2022/09/22 13:23:25;;;;;;;2.30;1.67;;;;;;;;;;4995388;28;20423;-75
2022/09/22 13:25:51;;;;;;;1.40;1.30;;;;;;;;;;4995382;28;20403;-74
2022/09/22 13:28:19;;;;;;;1.17;1.10;;;;;;;;;;4977783;28;20481;-74
2022/09/22 13:30:59;;;;;;;1.20;1.20;;;;;;;;;;4995284;28;20408;-74
2022/09/22 13:33:26;;;;;;;2.07;1.97;;;;;;;;;;4978184;28;20794;-75
2022/09/22 13:35:59;;;;;;;1.60;1.50;;;;;;;;;;4977759;28;20419;-75
2022/09/22 13:38:25;;;;;;;7.03;1.67;;;;;;;;;;4995104;28;20400;-76
2022/09/22 13:40:54;;;;;;;1.40;1.40;;;;;;;;;;4995042;28;20415;-75
2022/09/22 13:43:26;;;;;;;1.57;1.47;;;;;;;;;;4995012;28;20403;-75
2022/09/22 13:45:52;;;;;;;2.60;1.37;;;;;;;;;;4994995;28;20403;-76
2022/09/22 13:48:19;;;;;;;1.73;1.63;;;;;;;;;;4994845;28;20511;-77
2022/09/22 13:50:50;;;;;;;1.47;1.40;;;;;;;;;;4994942;28;20413;-77
2022/09/22 13:53:18;;;;;;;1.60;1.60;;;;;;;;;;4994627;28;20482;-77
2022/09/22 13:55:47;;;;;;;3.40;2.13;;;;;;;;;;4994832;28;20479;-76
2022/09/22 13:58:15;;;;;;;1.73;1.63;;;;;;;;;;4994200;28;20401;-75
2022/09/22 14:00:52;;;;;;;1.67;1.67;;;;;;;;;;4994720;28;20447;-74
2022/09/22 14:03:20;;;;;;;5.50;1.40;;;;;;;;;;4994695;28;20403;-74
2022/09/22 14:05:47;;;;;;;1.87;1.77;;;;;;;;;;4994654;28;20502;-75
2022/09/22 14:08:17;;;;;;;1.33;1.33;;;;;;;;;;4994549;28;20521;-75
2022/09/22 14:10:43;;;;;;;4.70;1.33;;;;;;;;;;4977441;28;20795;-75
2022/09/22 14:13:28;;;;;;;4.83;1.70;;;;;;;;;;4977083;28;20413;-75
2022/09/22 14:15:54;;;;;;;2.30;1.47;;;;;;;;;;4994471;28;20489;-75
2022/09/22 14:18:25;;;;;;;3.40;1.67;;;;;;;;;;4994392;28;20528;-75
2022/09/22 14:20:54;;;;;;;1.63;1.57;;;;;;;;;;4994353;28;20402;-75
2022/09/22 14:23:26;;;;;;;3.50;1.10;;;;;;;;;;4976811;28;20473;-77
2022/09/22 14:25:53;;;;;;;1.53;1.43;;;;;;;;;;4994298;28;20509;-78
2022/09/22 14:28:20;;;;;;;2.40;1.43;;;;;;;;;;4994304;28;20524;-75
2022/09/22 14:30:47;;;;;;;5.90;1.30;;;;;;;;;;4994505;28;20411;-76
2022/09/22 14:33:21;;;;;;;2.20;1.60;;;;;;;;;;4994175;28;20448;-76
2022/09/22 14:35:48;;;;;;;2.40;1.63;;;;;;;;;;4976764;28;20786;-74
2022/09/22 14:38:17;;;;;;;2.00;1.40;;;;;;;;;;4994189;28;20806;-75
2022/09/22 14:40:54;;;;;;;4.27;1.20;;;;;;;;;;4994178;28;20913;-75
2022/09/22 14:43:34;;;;;;;2.30;1.27;;;;;;;;;;4994256;28;20906;-78
2022/09/22 14:46:20;;;;;;;2.30;2.20;;;;;;;;;;4976837;28;20427;-79
2022/09/22 14:48:46;;;;;;;1.80;1.67;;;;;;;;;;4994138;28;20473;-79
2022/09/22 14:51:15;;;;;;;1.40;1.40;;;;;;;;;;4993985;28;20444;-78
2022/09/22 14:53:43;;;;;;;1.50;1.40;;;;;;;;;;4994361;28;20466;-78
2022/09/22 14:56:14;;;;;;;1.60;1.57;;;;;;;;;;4977216;28;20937;-76
2022/09/22 14:58:41;;;;;;;1.30;1.20;;;;;;;;;;4994366;28;20406;-77
2022/09/22 15:04:27;;;;;;;1.83;1.73;;;;;;;;;;4994074;28;20909;-79
2022/09/22 15:06:58;;;;;;;1.90;1.80;;;;;;;;;;4993786;28;20442;-78
2022/09/22 15:09:24;;;;;;;1.50;1.50;;;;;;;;;;4994090;28;20964;-79
2022/09/22 15:11:52;;;;;;;1.60;1.60;;;;;;;;;;4980345;28;20477;-79
2022/09/22 15:14:30;;;;;;;3.60;1.57;;;;;;;;;;4980580;28;20842;-79